NCAR-RAP Real-Time Weather Data

Output produced by METARs form (08 May 2021  16:09 UTC)
found at http://weather.rap.ucar.edu/surface/
 
KCLL 081553Z 18014G22KT 10SM BKN020 BKN024 OVC031 26/21 A2998 RMK AO2 SLP147 T02610206
KCLL 081534Z 17014KT 10SM BKN016 BKN024 26/21 A2998 RMK AO2 T02560206
KCLL 081453Z 18013KT 10SM OVC010 24/20 A2998 RMK AO2 CIG 008V013 SLP148 T02390200 58003
KCLL 081422Z 16012KT 10SM BKN009 OVC038 23/20 A2998 RMK AO2 T02280200
KCLL 081405Z 16011KT 10SM SCT007 OVC038 23/19 A2999 RMK AO2 T02280194
KCLL 081353Z 16009KT 10SM BKN007 BKN037 22/19 A2999 RMK AO2 CIG 005V010 SLP151 T02220194
KCLL 081253Z 16008KT 10SM SCT010 SCT014 20/18 A2999 RMK AO2 SLP152 T02000178
KCLL 081225Z AUTO 16006KT 10SM SCT030 19/17 A2999 RMK AO2 T01940172
KCLL 081153Z AUTO 16007KT 10SM FEW010 SCT021 BKN027 19/17 A2999 RMK AO2 SLP151 T01940167 10194 20167 55002
KCLL 081053Z AUTO 16006KT 10SM OVC022 19/17 A2998 RMK AO2 SLP148 T01890167
KCLL 080953Z AUTO 16006KT 10SM OVC017 19/16 A2998 RMK AO2 SLP149 T01890161
KCLL 080913Z AUTO 19004KT 10SM BKN016 18/15 A2999 RMK AO2 T01780150
KCLL 080905Z AUTO 16004KT 10SM SCT016 18/14 A2999 RMK AO2 T01780144
KCLL 080853Z AUTO 18003KT 10SM BKN015 17/14 A3000 RMK AO2 SLP153 T01720139 56014
KCLL 080840Z AUTO 19005KT 10SM BKN015 17/14 A3000 RMK AO2 T01720139
KCLL 080753Z AUTO 18004KT 10SM CLR 17/13 A3001 RMK AO2 SLP156 T01670128
KCLL 080653Z AUTO 15004KT 10SM CLR 18/13 A3003 RMK AO2 SLP164 T01780128
KCLL 080553Z AUTO 16006KT 10SM CLR 19/12 A3004 RMK AO2 SLP168 T01890117 10272 20189 402940172 50010
KCLL 080453Z AUTO 18007KT 10SM CLR 20/11 A3004 RMK AO2 SLP169 T02000111
KCLL 080353Z AUTO 17009KT 10SM CLR 22/11 A3003 RMK AO2 SLP164 T02170111
KCLL 080253Z AUTO 16011KT 10SM CLR 23/12 A3001 RMK AO2 SLP157 T02330117 55002
KCLL 080153Z AUTO 16009KT 10SM CLR 24/11 A3000 RMK AO2 SLP153 T02390111